Time;durP1;ratioP1;P1;durP2;ratioP2;P2;SDS_P1;SDS_P2;PMS_P1;PMS_P2;Temp;Humidity;BMP_temperature;BMP_pressure;BME280_temperature;BME280_humidity;BME280_pressure;Samples;Min_cycle;Max_cycle;Signal;HPM_P1;HPM_P2
2023/04/05 00:00:53;;;;;;;12.00;10.70;;;;;;;0.46;85.15;95867.81;4940601;29;20497;-71
2023/04/05 00:03:19;;;;;;;11.65;10.45;;;;;;;0.42;84.40;95867.09;4936979;29;20080;-71
2023/04/05 00:05:45;;;;;;;11.15;9.95;;;;;;;0.30;85.99;95867.69;4937236;29;20087;-71
2023/04/05 00:08:17;;;;;;;10.35;9.35;;;;;;;0.28;85.26;95870.38;4934138;29;20043;-70
2023/04/05 00:10:43;;;;;;;7.80;7.10;;;;;;;0.25;85.12;95878.28;4940311;29;20418;-70
2023/04/05 00:13:08;;;;;;;7.00;6.40;;;;;;;0.17;85.28;95876.06;4937022;29;20114;-71
2023/04/05 00:15:34;;;;;;;7.13;6.53;;;;;;;0.13;84.98;95872.78;4939401;29;20031;-71
2023/04/05 00:18:02;;;;;;;8.85;6.78;;;;;;;0.25;83.55;95876.53;4940318;29;20038;-71
2023/04/05 00:20:28;;;;;;;7.18;6.47;;;;;;;0.22;83.71;95876.69;4937321;29;20563;-71
2023/04/05 00:22:53;;;;;;;8.10;7.40;;;;;;;0.19;84.25;95870.78;4939585;29;20197;-71
2023/04/05 00:25:20;;;;;;;7.88;7.28;;;;;;;0.09;85.48;95873.84;4936437;29;20038;-71
2023/04/05 00:27:46;;;;;;;10.02;7.20;;;;;;;0.03;87.26;95873.28;4939695;29;20031;-71
2023/04/05 00:30:12;;;;;;;7.63;6.95;;;;;;;0.05;86.11;95879.22;4921731;29;20536;-71
2023/04/05 00:32:37;;;;;;;7.70;7.00;;;;;;;-0.03;87.13;95869.22;4939574;29;20523;-71
2023/04/05 00:35:03;;;;;;;8.13;7.43;;;;;;;-0.02;87.31;95883.84;4937602;29;20054;-71
2023/04/05 00:37:28;;;;;;;7.53;6.70;;;;;;;-0.05;86.84;95878.81;4933844;29;20245;-71
2023/04/05 00:39:56;;;;;;;7.30;6.65;;;;;;;-0.06;86.83;95883.19;4938153;29;20032;-71
2023/04/05 00:42:22;;;;;;;7.18;6.57;;;;;;;-0.08;86.67;95874.66;4937816;29;20385;-71
2023/04/05 00:44:47;;;;;;;7.75;7.05;;;;;;;-0.09;86.97;95872.13;4938992;29;20038;-71
2023/04/05 00:47:13;;;;;;;8.32;7.68;;;;;;;-0.17;88.34;95859.53;4936208;29;20070;-71
2023/04/05 00:49:39;;;;;;;11.20;8.13;;;;;;;-0.20;89.05;95864.84;4938155;29;20036;-71
2023/04/05 00:52:05;;;;;;;8.20;7.45;;;;;;;-0.20;88.22;95862.28;4939313;29;20039;-71
2023/04/05 00:54:31;;;;;;;8.52;7.82;;;;;;;-0.19;88.34;95858.78;4936331;29;20035;-71
2023/04/05 00:56:59;;;;;;;8.50;7.70;;;;;;;-0.19;88.56;95858.78;4934729;29;20139;-71
2023/04/05 00:59:25;;;;;;;9.52;8.35;;;;;;;-0.20;88.95;95857.94;4938559;29;20071;-71
2023/04/05 01:02:01;;;;;;;7.90;7.10;;;;;;;-0.30;90.24;95856.69;4933231;29;20054;-71
2023/04/05 01:04:31;;;;;;;8.90;8.07;;;;;;;-0.38;90.97;95854.44;4933950;29;20032;-71
2023/04/05 01:07:03;;;;;;;8.32;7.63;;;;;;;-0.42;91.53;95855.50;4936110;29;20061;-71
2023/04/05 01:09:52;;;;;;;10.23;9.10;;;;;;;-0.31;90.42;95855.84;4937899;29;20034;-71
2023/04/05 01:12:20;;;;;;;10.77;9.05;;;;;;;-0.35;90.20;95856.88;4937351;29;20024;-71
2023/04/05 01:14:51;;;;;;;9.25;8.15;;;;;;;-0.42;91.55;95850.31;4935916;29;20016;-71
2023/04/05 01:17:21;;;;;;;9.77;8.77;;;;;;;-0.47;91.33;95847.13;4936498;29;20064;-71
2023/04/05 01:19:52;;;;;;;9.45;8.57;;;;;;;-0.44;90.66;95847.81;4935879;29;20114;-71
2023/04/05 01:22:39;;;;;;;9.48;8.65;;;;;;;-0.38;90.51;95840.69;4936053;29;20024;-71
2023/04/05 01:25:29;;;;;;;9.82;8.90;;;;;;;-0.41;90.65;95835.66;4935410;29;20437;-71
2023/04/05 01:28:08;;;;;;;8.68;7.82;;;;;;;-0.48;91.54;95838.50;4938405;29;20066;-71
2023/04/05 01:30:39;;;;;;;8.93;8.13;;;;;;;-0.54;91.14;95836.22;4938088;29;20178;-71
2023/04/05 01:33:18;;;;;;;8.75;7.95;;;;;;;-0.49;90.85;95838.59;4937441;29;20032;-71
2023/04/05 01:35:53;;;;;;;9.68;8.15;;;;;;;-0.59;92.09;95839.00;4936218;29;20032;-71
2023/04/05 01:38:23;;;;;;;8.33;7.63;;;;;;;-0.61;92.15;95845.16;4938467;29;20522;-70
2023/04/05 01:40:50;;;;;;;8.82;8.07;;;;;;;-0.63;92.22;95847.00;4938371;29;20047;-71
2023/04/05 01:43:17;;;;;;;10.60;7.80;;;;;;;-0.62;91.55;95844.31;4938044;29;20024;-71
2023/04/05 01:45:43;;;;;;;10.35;8.82;;;;;;;-0.64;91.62;95840.13;4937510;29;20503;-71
2023/04/05 01:48:09;;;;;;;9.90;8.85;;;;;;;-0.66;91.98;95847.13;4938442;29;20089;-71
2023/04/05 01:50:35;;;;;;;8.85;8.05;;;;;;;-0.74;92.95;95845.72;4936410;29;20500;-71
2023/04/05 01:53:00;;;;;;;7.60;6.82;;;;;;;-0.76;92.03;95851.88;4938189;29;20027;-71
2023/04/05 01:55:25;;;;;;;7.07;6.45;;;;;;;-0.77;92.19;95840.69;4936868;29;20030;-71
2023/04/05 01:57:54;;;;;;;6.95;6.25;;;;;;;-0.78;92.02;95848.50;4936572;29;20528;-71
2023/04/05 02:00:20;;;;;;;8.07;6.80;;;;;;;-0.80;92.12;95850.31;4936048;29;20505;-71
2023/04/05 02:02:46;;;;;;;8.55;7.15;;;;;;;-0.84;93.04;95847.03;4920009;29;20118;-71
2023/04/05 02:05:11;;;;;;;7.43;6.82;;;;;;;-0.88;93.86;95842.91;4935930;29;20119;-71
2023/04/05 02:07:37;;;;;;;7.75;7.15;;;;;;;-0.85;93.58;95841.94;4937435;29;20024;-71
2023/04/05 02:10:03;;;;;;;7.30;6.70;;;;;;;-0.95;93.72;95837.19;4919411;29;20098;-71
2023/04/05 02:12:29;;;;;;;7.35;6.75;;;;;;;-0.94;94.50;95833.69;4936566;29;20035;-71
2023/04/05 02:14:54;;;;;;;7.72;6.95;;;;;;;-0.84;93.80;95828.94;4918199;29;20396;-71
2023/04/05 02:17:20;;;;;;;7.15;6.45;;;;;;;-0.82;93.66;95827.13;4932399;29;20442;-71
2023/04/05 02:19:46;;;;;;;7.85;7.15;;;;;;;-0.84;94.93;95825.50;4935980;29;20027;-71
2023/04/05 02:22:12;;;;;;;9.93;7.13;;;;;;;-0.83;94.96;95832.34;4937411;29;20027;-71
2023/04/05 02:24:37;;;;;;;7.28;6.68;;;;;;;-0.80;94.80;95833.06;4937617;29;20481;-71
2023/04/05 02:27:03;;;;;;;9.18;6.97;;;;;;;-0.76;94.73;95821.66;4937224;29;20087;-71
2023/04/05 02:29:28;;;;;;;8.52;7.68;;;;;;;-0.82;95.06;95823.69;4936075;29;20055;-72
2023/04/05 02:31:54;;;;;;;7.93;7.22;;;;;;;-0.93;95.23;95825.03;4936817;29;20111;-71
2023/04/05 02:34:21;;;;;;;7.80;6.88;;;;;;;-0.99;96.40;95824.44;4937438;29;20027;-72
2023/04/05 02:36:49;;;;;;;7.72;7.03;;;;;;;-1.00;96.77;95828.75;4932116;29;20619;-71
2023/04/05 02:39:15;;;;;;;8.57;7.63;;;;;;;-0.99;96.57;95830.47;4932933;29;20032;-71
2023/04/05 02:41:40;;;;;;;7.25;6.63;;;;;;;-0.98;97.14;95832.16;4936811;29;20029;-71
2023/04/05 02:44:06;;;;;;;7.68;6.88;;;;;;;-0.97;97.78;95832.97;4936967;29;20103;-72
2023/04/05 02:46:31;;;;;;;7.07;6.55;;;;;;;-1.00;97.42;95831.34;4935895;29;20496;-71
2023/04/05 02:48:56;;;;;;;7.47;6.60;;;;;;;-0.99;97.77;95830.47;4914637;29;20023;-71
2023/04/05 02:51:22;;;;;;;7.28;6.68;;;;;;;-0.96;98.29;95830.31;4932196;29;20051;-71
2023/04/05 02:53:48;;;;;;;7.63;7.00;;;;;;;-0.95;97.31;95823.41;4936438;29;20027;-72
2023/04/05 02:56:13;;;;;;;7.88;6.53;;;;;;;-0.95;97.95;95831.16;4935143;29;20039;-71
2023/04/05 02:58:39;;;;;;;7.68;6.90;;;;;;;-0.95;97.80;95836.31;4932737;29;20066;-72
2023/04/05 03:01:05;;;;;;;7.60;6.90;;;;;;;-0.95;97.45;95833.75;4937367;29;20015;-72
2023/04/05 03:03:33;;;;;;;7.47;6.82;;;;;;;-0.97;97.97;95838.13;4936995;29;20039;-71
2023/04/05 03:06:08;;;;;;;8.63;7.80;;;;;;;-1.01;98.57;95843.44;4930307;29;20042;-71
2023/04/05 03:08:35;;;;;;;;;;;;;;;-0.98;98.56;95841.63;4932886;29;20408;-72
2023/04/05 03:11:01;;;;;;;7.82;7.13;;;;;;;-0.96;97.67;95848.41;4935308;29;20366;-72
2023/04/05 03:13:26;;;;;;;7.95;7.28;;;;;;;-0.97;97.57;95840.72;4936239;29;20031;-72
2023/04/05 03:15:54;;;;;;;7.10;6.47;;;;;;;-0.96;97.80;95843.25;4936039;29;20481;-72
2023/04/05 03:18:20;;;;;;;7.50;6.90;;;;;;;-0.94;97.15;95844.03;4932309;29;20035;-72
2023/04/05 03:20:48;;;;;;;7.78;7.00;;;;;;;-0.96;97.04;95839.81;4932915;29;20025;-72
2023/04/05 03:23:14;;;;;;;7.68;6.97;;;;;;;-1.04;98.12;95842.72;4934831;29;20039;-71
2023/04/05 03:25:40;;;;;;;8.48;7.63;;;;;;;-1.17;99.60;95850.19;4931273;29;20187;-72
2023/04/05 03:28:07;;;;;;;8.65;7.78;;;;;;;-1.21;99.98;95857.25;4935347;29;20478;-72
2023/04/05 03:30:33;;;;;;;9.90;8.80;;;;;;;-1.23;100.00;95853.03;4936421;29;20036;-72
2023/04/05 03:33:01;;;;;;;11.90;8.90;;;;;;;-1.23;99.70;95864.19;4931368;29;20061;-72
2023/04/05 03:35:30;;;;;;;11.55;9.20;;;;;;;-1.21;99.00;95866.72;4935173;29;20055;-71
2023/04/05 03:37:55;;;;;;;9.98;9.00;;;;;;;-1.20;99.23;95856.34;4935931;29;20134;-71
2023/04/05 03:40:24;;;;;;;10.45;9.45;;;;;;;-1.21;99.17;95864.16;4916245;29;20051;-71
2023/04/05 03:42:49;;;;;;;12.27;9.68;;;;;;;-1.24;99.70;95862.53;4934542;29;20027;-71
2023/04/05 03:45:15;;;;;;;11.40;9.23;;;;;;;-1.24;99.75;95864.28;4935005;29;20535;-71
2023/04/05 03:47:41;;;;;;;13.40;9.57;;;;;;;-1.32;99.92;95859.44;4934718;29;20031;-72
2023/04/05 03:50:07;;;;;;;11.35;10.25;;;;;;;-1.39;100.00;95858.03;4934981;29;20063;-73
2023/04/05 03:52:33;;;;;;;11.95;10.63;;;;;;;-1.39;100.00;95860.59;4932958;29;20440;-72
2023/04/05 03:54:58;;;;;;;10.82;9.77;;;;;;;-1.42;100.00;95850.41;4936920;29;20035;-72
2023/04/05 03:57:27;;;;;;;10.93;9.52;;;;;;;-1.42;99.88;95853.81;4931459;29;20048;-71
2023/04/05 03:59:53;;;;;;;10.20;9.07;;;;;;;-1.41;99.24;95852.91;4934850;29;20036;-71
2023/04/05 04:02:18;;;;;;;9.30;8.40;;;;;;;-1.38;98.91;95855.34;4934563;29;20028;-71
2023/04/05 04:04:44;;;;;;;9.50;8.38;;;;;;;-1.40;99.60;95852.00;4917773;29;20433;-71
2023/04/05 04:07:10;;;;;;;8.88;8.05;;;;;;;-1.43;99.14;95852.13;4936652;29;20079;-72
2023/04/05 04:09:35;;;;;;;9.40;8.45;;;;;;;-1.47;98.25;95848.84;4936251;29;20554;-72
2023/04/05 04:12:01;;;;;;;9.40;8.50;;;;;;;-1.43;98.55;95856.47;4930330;29;20571;-73
2023/04/05 04:14:26;;;;;;;10.25;8.90;;;;;;;-1.37;99.05;95856.22;4935097;29;20027;-71
2023/04/05 04:16:51;;;;;;;10.00;9.00;;;;;;;-1.45;99.08;95854.78;4916596;29;20043;-71
2023/04/05 04:19:17;;;;;;;9.18;8.07;;;;;;;-1.45;99.46;95851.38;4936364;29;20035;-72
2023/04/05 04:21:50;;;;;;;10.10;9.30;;;;;;;-1.48;98.96;95846.34;4935917;29;20503;-70
2023/04/05 04:24:19;;;;;;;9.60;8.75;;;;;;;-1.48;98.92;95854.06;4935287;29;20625;-71
2023/04/05 04:26:45;;;;;;;10.43;9.52;;;;;;;-1.50;99.79;95848.13;4931586;29;20034;-71
2023/04/05 04:29:16;;;;;;;12.85;9.98;;;;;;;-1.54;99.88;95855.16;4933296;29;20032;-71
2023/04/05 04:31:44;;;;;;;9.73;8.63;;;;;;;-1.52;100.00;95857.69;4938995;29;20039;-70
2023/04/05 04:34:12;;;;;;;10.68;9.68;;;;;;;-1.53;100.00;95856.84;4939365;29;20043;-69
2023/04/05 04:36:41;;;;;;;10.63;9.32;;;;;;;-1.59;100.00;95854.53;4935572;29;20038;-69
2023/04/05 04:39:12;;;;;;;10.40;9.40;;;;;;;-1.61;99.96;95852.00;4938006;29;20028;-69
2023/04/05 04:41:43;;;;;;;11.00;9.50;;;;;;;-1.54;98.92;95857.75;4937976;29;20131;-71
2023/04/05 04:44:13;;;;;;;11.30;8.00;;;;;;;-1.55;99.30;95855.22;4917703;29;20078;-71
2023/04/05 04:46:42;;;;;;;9.15;8.30;;;;;;;-1.59;100.00;95851.94;4938234;29;20083;-71
2023/04/05 04:49:09;;;;;;;10.25;9.05;;;;;;;-1.60;100.00;95847.69;4921693;29;20114;-71
2023/04/05 04:51:38;;;;;;;10.77;9.15;;;;;;;-1.62;99.88;95846.91;4939257;29;20034;-71
2023/04/05 04:54:03;;;;;;;14.65;13.15;;;;;;;-1.63;99.82;95856.38;4930840;29;20039;-71
2023/04/05 04:56:29;;;;;;;18.35;13.52;;;;;;;-1.63;100.00;95842.66;4936188;29;20064;-72
2023/04/05 04:58:55;;;;;;;14.15;12.65;;;;;;;-1.66;100.00;95841.03;4939853;29;20027;-71
2023/04/05 05:01:21;;;;;;;15.13;13.60;;;;;;;-1.69;100.00;95846.31;4937042;29;20032;-71
2023/04/05 05:03:47;;;;;;;16.35;12.38;;;;;;;-1.76;100.00;95848.31;4938534;29;20042;-70
2023/04/05 05:06:16;;;;;;;12.82;11.55;;;;;;;-1.74;100.00;95854.25;4936423;29;20035;-71
2023/04/05 05:08:41;;;;;;;11.52;10.32;;;;;;;-1.80;100.00;95859.66;4939026;29;20054;-70
2023/04/05 05:11:07;;;;;;;11.48;10.32;;;;;;;-1.70;100.00;95854.13;4938066;29;20704;-71
2023/04/05 05:13:32;;;;;;;10.45;9.38;;;;;;;-1.64;100.00;95859.03;4920579;29;20609;-71
2023/04/05 05:15:59;;;;;;;13.93;9.00;;;;;;;-1.67;100.00;95854.84;4931785;29;20054;-70
2023/04/05 05:18:24;;;;;;;10.77;9.70;;;;;;;-1.68;100.00;95858.31;4918356;29;20062;-71
2023/04/05 05:20:51;;;;;;;14.52;10.45;;;;;;;-1.67;100.00;95847.09;4918978;29;20028;-72
2023/04/05 05:23:16;;;;;;;11.45;10.30;;;;;;;-1.64;100.00;95848.72;4935923;29;20032;-72
2023/04/05 05:25:42;;;;;;;12.18;11.07;;;;;;;-1.66;100.00;95851.34;4920720;29;20023;-71
2023/04/05 05:28:07;;;;;;;11.23;10.32;;;;;;;-1.60;100.00;95852.84;4936964;29;20036;-72
2023/04/05 05:30:33;;;;;;;11.88;10.65;;;;;;;-1.52;100.00;95852.53;4929777;29;20056;-71
2023/04/05 05:32:59;;;;;;;12.77;11.40;;;;;;;-1.50;100.00;95848.97;4919473;29;20094;-71
2023/04/05 05:35:24;;;;;;;12.27;11.07;;;;;;;-1.47;100.00;95851.41;4936147;29;20023;-71
2023/04/05 05:37:49;;;;;;;20.63;14.25;;;;;;;-1.39;99.56;95852.84;4937878;29;20028;-71
2023/04/05 05:40:15;;;;;;;16.10;14.43;;;;;;;-1.30;99.19;95857.63;4934980;29;20457;-71
2023/04/05 05:42:40;;;;;;;16.05;14.55;;;;;;;-1.38;99.84;95867.44;4920657;29;20032;-72
2023/04/05 05:45:07;;;;;;;16.58;13.88;;;;;;;-1.43;100.00;95869.38;4933231;29;20523;-72
2023/04/05 05:47:32;;;;;;;14.52;13.13;;;;;;;-1.47;100.00;95866.09;4931097;29;20477;-73
2023/04/05 05:49:58;;;;;;;18.98;14.10;;;;;;;-1.41;100.00;95872.75;4936206;29;20049;-72
2023/04/05 05:52:23;;;;;;;14.40;12.90;;;;;;;-1.37;100.00;95874.28;4935366;29;20119;-72
2023/04/05 05:54:49;;;;;;;14.52;13.13;;;;;;;-1.35;100.00;95885.41;4935048;29;20031;-71
2023/04/05 05:57:14;;;;;;;14.15;12.75;;;;;;;-1.34;99.47;95881.91;4918767;29;20043;-72
2023/04/05 05:59:40;;;;;;;17.45;11.45;;;;;;;-1.32;99.17;95887.84;4936771;29;20047;-72
2023/04/05 06:02:06;;;;;;;13.77;12.57;;;;;;;-1.32;99.39;95882.69;4935444;29;20019;-71
2023/04/05 06:04:33;;;;;;;17.95;16.20;;;;;;;-1.27;98.97;95888.47;4933266;29;20391;-71
2023/04/05 06:06:59;;;;;;;16.45;14.57;;;;;;;-1.26;99.19;95895.34;4917152;29;20484;-72
2023/04/05 06:09:25;;;;;;;17.15;13.43;;;;;;;-1.31;100.00;95899.84;4932019;29;20100;-72
2023/04/05 06:11:51;;;;;;;15.98;13.60;;;;;;;-1.28;100.00;95907.47;4931861;29;20031;-71
2023/04/05 06:14:17;;;;;;;18.08;12.77;;;;;;;-1.24;100.00;95906.44;4933707;29;20043;-71
2023/04/05 06:16:42;;;;;;;15.05;12.98;;;;;;;-1.19;100.00;95917.44;4936675;29;20039;-71
2023/04/05 06:19:08;;;;;;;13.07;11.73;;;;;;;-1.11;99.91;95918.84;4933929;29;20150;-71
2023/04/05 06:21:33;;;;;;;15.18;13.70;;;;;;;-1.08;99.57;95923.88;4933728;29;20027;-71
2023/04/05 06:23:59;;;;;;;16.83;13.57;;;;;;;-1.05;99.99;95918.59;4918956;29;20035;-68
2023/04/05 06:26:25;;;;;;;49.38;26.25;;;;;;;-1.04;99.51;95917.69;4933604;29;20039;-71
2023/04/05 06:28:52;;;;;;;35.78;21.48;;;;;;;-1.03;100.00;95912.47;4930924;29;20099;-69
2023/04/05 06:31:19;;;;;;;27.35;18.58;;;;;;;-1.01;100.00;95917.53;4935596;29;20063;-70
2023/04/05 06:33:45;;;;;;;26.83;16.98;;;;;;;-0.94;100.00;95916.41;4934019;29;20035;-69
2023/04/05 06:36:11;;;;;;;23.42;15.70;;;;;;;-0.84;99.09;95923.75;4935453;29;20051;-69
2023/04/05 06:38:37;;;;;;;17.42;14.75;;;;;;;-0.80;98.62;95926.13;4927191;29;20033;-68
2023/04/05 06:41:02;;;;;;;17.98;14.77;;;;;;;-0.74;98.03;95922.47;4937253;29;20023;-69
2023/04/05 06:43:28;;;;;;;16.73;14.13;;;;;;;-0.72;98.61;95918.06;4935021;29;20041;-70
2023/04/05 06:45:57;;;;;;;25.52;16.10;;;;;;;-0.68;98.81;95924.75;4935208;29;20039;-70
2023/04/05 06:48:23;;;;;;;24.25;15.27;;;;;;;-0.69;99.31;95924.81;4930427;29;20040;-70
2023/04/05 06:51:02;;;;;;;25.08;17.88;;;;;;;-0.65;99.94;95931.56;4935669;29;20416;-70
2023/04/05 06:53:28;;;;;;;26.60;17.58;;;;;;;-0.52;100.00;95926.69;4929634;29;20042;-70
2023/04/05 06:55:55;;;;;;;22.08;16.63;;;;;;;0.14;99.22;95920.25;4933137;29;20040;-70
2023/04/05 06:58:22;;;;;;;23.08;15.10;;;;;;;1.35;94.33;95921.25;4930629;29;20467;-71
2023/04/05 07:00:48;;;;;;;28.92;18.25;;;;;;;2.49;88.43;95913.44;4934707;29;20036;-69
2023/04/05 07:03:13;;;;;;;25.00;18.08;;;;;;;3.36;83.96;95916.22;4934985;29;20036;-70
2023/04/05 07:05:39;;;;;;;15.85;12.63;;;;;;;4.14;79.99;95922.78;4935316;29;20039;-70
2023/04/05 07:08:05;;;;;;;13.32;10.40;;;;;;;4.86;75.08;95919.91;4926896;29;20058;-70
2023/04/05 07:10:30;;;;;;;8.98;8.07;;;;;;;5.39;70.54;95919.00;4931192;29;20036;-71
2023/04/05 07:12:56;;;;;;;9.77;8.55;;;;;;;5.86;63.34;95919.28;4929422;29;20119;-71
2023/04/05 07:15:21;;;;;;;12.68;9.38;;;;;;;6.17;63.09;95913.72;4931032;29;20496;-71
2023/04/05 07:17:46;;;;;;;8.48;7.68;;;;;;;6.65;62.23;95909.44;4911161;29;20070;-71
2023/04/05 07:20:13;;;;;;;8.25;7.45;;;;;;;7.00;61.93;95904.22;4934789;29;20086;-71
2023/04/05 07:22:38;;;;;;;8.25;7.45;;;;;;;7.40;59.94;95904.78;4936115;29;22222;-72
2023/04/05 07:25:04;;;;;;;8.02;7.32;;;;;;;7.63;58.03;95905.66;4935385;29;20055;-72
2023/04/05 07:27:30;;;;;;;7.97;7.30;;;;;;;7.97;56.98;95902.19;4935379;29;20028;-71
2023/04/05 07:29:56;;;;;;;6.88;6.22;;;;;;;7.95;54.83;95904.94;4929235;29;20059;-70
2023/04/05 07:32:21;;;;;;;8.25;6.80;;;;;;;7.97;55.49;95902.19;4935429;29;20429;-70
2023/04/05 07:34:47;;;;;;;7.65;6.55;;;;;;;8.18;51.94;95907.53;4935247;29;20027;-69
2023/04/05 07:37:12;;;;;;;6.50;6.00;;;;;;;8.32;51.04;95904.66;4929924;29;20062;-70
2023/04/05 07:39:38;;;;;;;15.60;11.35;;;;;;;8.62;51.36;95904.09;4936571;29;20039;-70
2023/04/05 07:42:04;;;;;;;19.95;14.43;;;;;;;8.79;49.88;95903.56;4936134;29;20082;-70
2023/04/05 07:44:29;;;;;;;7.57;6.70;;;;;;;8.64;47.92;95905.66;4934454;29;20550;-70
2023/04/05 07:46:55;;;;;;;8.10;7.22;;;;;;;8.63;49.90;95903.16;4936536;29;20088;-70
2023/04/05 07:49:26;;;;;;;10.52;7.68;;;;;;;8.48;49.36;95905.19;4934504;29;20472;-70
2023/04/05 07:51:56;;;;;;;9.68;7.13;;;;;;;8.95;48.62;95899.66;4932620;29;20555;-70
2023/04/05 07:54:22;;;;;;;7.68;7.00;;;;;;;8.99;48.41;95895.84;4918386;29;20032;-69
2023/04/05 07:56:48;;;;;;;7.95;7.18;;;;;;;8.84;49.29;95909.28;4933593;28;20044;-69
2023/04/05 07:59:14;;;;;;;8.10;7.25;;;;;;;9.15;46.40;95908.53;4930390;29;20036;-70
2023/04/05 08:01:40;;;;;;;8.02;7.22;;;;;;;9.53;47.14;95903.63;4935721;29;20436;-70
2023/04/05 08:04:05;;;;;;;7.30;6.60;;;;;;;9.88;45.08;95908.50;4931397;29;20024;-70
2023/04/05 08:06:31;;;;;;;7.38;6.65;;;;;;;9.24;45.42;95906.94;4938839;29;20027;-70
2023/04/05 08:08:56;;;;;;;7.93;6.70;;;;;;;9.54;45.05;95913.19;4936549;29;20032;-71
2023/04/05 08:11:21;;;;;;;7.57;6.97;;;;;;;9.26;45.09;95912.91;4940414;29;20125;-72
2023/04/05 08:13:47;;;;;;;7.18;6.47;;;;;;;9.32;44.40;95910.59;4939932;29;20069;-71
2023/04/05 08:16:12;;;;;;;6.75;6.13;;;;;;;9.87;44.68;95921.81;4938930;29;20019;-71
2023/04/05 08:18:38;;;;;;;8.32;6.47;;;;;;;9.92;44.38;95921.38;4943110;29;20059;-71
2023/04/05 08:21:03;;;;;;;7.28;6.57;;;;;;;10.64;41.72;95918.72;4940318;29;20494;-71
2023/04/05 08:23:30;;;;;;;7.65;6.57;;;;;;;10.50;41.36;95912.03;4940279;29;20016;-72
2023/04/05 08:25:56;;;;;;;7.80;5.80;;;;;;;10.00;43.96;95919.75;4937185;29;20023;-72
2023/04/05 08:28:21;;;;;;;9.23;6.55;;;;;;;10.80;42.09;95912.91;4922811;29;20107;-71
2023/04/05 08:30:47;;;;;;;7.13;6.20;;;;;;;11.13;42.68;95908.19;4922241;29;20079;-72
2023/04/05 08:33:13;;;;;;;7.85;6.90;;;;;;;11.67;40.19;95907.66;4942182;29;20116;-72
2023/04/05 08:35:39;;;;;;;8.93;6.13;;;;;;;11.75;39.93;95913.88;4940591;29;20075;-72
2023/04/05 08:38:05;;;;;;;7.65;5.95;;;;;;;11.60;40.02;95908.25;4938887;29;20039;-72
2023/04/05 08:40:43;;;;;;;8.02;6.30;;;;;;;11.60;39.49;95905.59;4934639;29;20476;-73
2023/04/05 08:43:30;;;;;;;6.57;5.97;;;;;;;11.71;39.60;95909.03;4933290;29;20039;-73
2023/04/05 08:45:58;;;;;;;6.63;5.80;;;;;;;12.00;38.08;95901.00;4932432;29;20544;-72
2023/04/05 08:48:27;;;;;;;8.32;6.20;;;;;;;11.88;38.61;95903.00;4931596;29;20035;-72
2023/04/05 08:50:54;;;;;;;6.45;5.95;;;;;;;12.17;38.88;95903.91;4935236;29;20058;-72
2023/04/05 08:53:20;;;;;;;7.00;6.30;;;;;;;11.92;39.40;95903.56;4937358;29;21465;-73
2023/04/05 08:55:50;;;;;;;6.20;5.70;;;;;;;12.31;38.30;95894.66;4935247;29;20016;-72
2023/04/05 08:58:17;;;;;;;6.38;5.72;;;;;;;12.25;37.70;95895.25;4939710;29;20055;-71
2023/04/05 09:00:43;;;;;;;6.28;5.78;;;;;;;12.50;37.98;95888.44;4904159;29;20016;-72
2023/04/05 09:03:16;;;;;;;8.98;5.85;;;;;;;12.02;38.93;95882.44;4900614;29;20511;-72
2023/04/05 09:05:45;;;;;;;6.57;5.97;;;;;;;12.35;38.26;95887.28;4938407;29;20035;-73
2023/04/05 09:08:12;;;;;;;6.20;5.68;;;;;;;12.21;37.01;95886.78;4938776;29;20136;-72
2023/04/05 09:10:39;;;;;;;6.85;6.15;;;;;;;12.36;37.18;95886.28;4933858;29;20023;-72
2023/04/05 09:13:04;;;;;;;6.78;5.70;;;;;;;13.00;36.18;95879.13;4932838;29;20032;-71
2023/04/05 09:15:30;;;;;;;6.43;5.65;;;;;;;12.74;36.67;95882.56;4934339;29;20016;-71
2023/04/05 09:17:56;;;;;;;6.43;5.80;;;;;;;12.45;37.78;95866.91;4936987;29;20059;-71
2023/04/05 09:20:21;;;;;;;5.95;5.45;;;;;;;13.59;34.47;95867.19;4936407;29;20536;-71
2023/04/05 09:22:47;;;;;;;6.45;5.95;;;;;;;12.37;36.86;95864.19;4936861;29;20031;-71
2023/04/05 09:25:39;;;;;;;6.25;5.65;;;;;;;13.05;35.04;95868.13;4937789;29;20032;-71
2023/04/05 09:28:06;;;;;;;6.25;5.75;;;;;;;12.41;35.81;95870.84;4936353;29;20031;-72
2023/04/05 09:30:32;;;;;;;6.13;5.60;;;;;;;12.72;39.17;95866.03;4937200;29;20032;-71
2023/04/05 09:32:58;;;;;;;6.40;5.80;;;;;;;13.81;36.33;95865.81;4918506;29;20051;-71
2023/04/05 09:35:29;;;;;;;6.30;5.65;;;;;;;14.19;35.09;95862.84;4937870;29;20020;-72
2023/04/05 09:37:57;;;;;;;6.40;5.57;;;;;;;14.22;34.43;95865.16;4937665;29;20035;-72
2023/04/05 09:40:23;;;;;;;11.10;5.55;;;;;;;14.23;33.13;95864.16;4929270;29;20098;-72
2023/04/05 09:42:49;;;;;;;6.18;5.68;;;;;;;13.91;34.57;95878.94;4936768;29;20015;-72
2023/04/05 09:45:17;;;;;;;6.32;5.72;;;;;;;13.77;34.81;95874.22;4936469;29;20039;-73
2023/04/05 09:47:53;;;;;;;6.32;5.82;;;;;;;13.29;34.28;95866.63;4919303;29;20102;-72
2023/04/05 09:50:19;;;;;;;6.07;5.40;;;;;;;13.27;33.71;95872.09;4932357;29;20015;-72
2023/04/05 09:52:45;;;;;;;5.90;5.38;;;;;;;13.32;34.41;95876.91;4935480;29;20058;-72
2023/04/05 09:55:11;;;;;;;6.72;5.78;;;;;;;14.37;32.38;95881.28;4938370;29;20134;-72
2023/04/05 09:57:42;;;;;;;5.97;5.47;;;;;;;13.51;35.79;95875.06;4933515;29;20043;-72
2023/04/05 10:00:26;;;;;;;6.00;5.40;;;;;;;13.19;33.81;95872.03;4934405;29;20136;-72
2023/04/05 10:02:54;;;;;;;7.53;5.78;;;;;;;13.28;35.37;95864.97;4934712;29;20707;-72
2023/04/05 10:05:23;;;;;;;7.22;5.63;;;;;;;13.57;33.06;95861.22;4931311;29;20020;-72
2023/04/05 10:07:50;;;;;;;6.75;6.15;;;;;;;13.69;34.22;95864.44;4924997;29;20041;-72
2023/04/05 10:10:15;;;;;;;7.28;5.82;;;;;;;13.49;34.23;95867.31;4932451;29;20055;-72
2023/04/05 10:12:41;;;;;;;7.45;6.30;;;;;;;12.86;34.78;95862.00;4931482;29;20075;-72
2023/04/05 10:15:08;;;;;;;10.27;6.70;;;;;;;12.51;36.20;95866.34;4938355;29;20028;-72
2023/04/05 10:17:50;;;;;;;5.70;5.20;;;;;;;13.01;35.07;95866.78;4936537;29;20027;-72
2023/04/05 10:20:23;;;;;;;5.88;5.38;;;;;;;13.33;34.65;95860.06;4937615;29;20016;-72
2023/04/05 10:23:20;;;;;;;5.63;5.15;;;;;;;14.00;34.48;95854.16;4933964;29;20405;-73
2023/04/05 10:25:52;;;;;;;6.70;5.60;;;;;;;13.84;30.90;95859.41;4933368;29;20028;-72
2023/04/05 10:28:25;;;;;;;5.75;5.15;;;;;;;14.12;33.10;95851.25;4930059;29;20400;-73
2023/04/05 10:30:57;;;;;;;5.68;5.22;;;;;;;14.95;31.57;95849.59;4930875;29;20027;-73
2023/04/05 10:33:32;;;;;;;6.88;5.47;;;;;;;15.13;29.74;95852.06;4929501;29;20028;-73
2023/04/05 10:36:15;;;;;;;5.75;5.25;;;;;;;14.33;30.64;95843.69;4936121;29;20023;-73
2023/04/05 10:39:11;;;;;;;5.95;5.30;;;;;;;15.20;31.90;95843.47;4934079;29;20106;-73
2023/04/05 10:41:45;;;;;;;5.57;5.05;;;;;;;15.66;30.64;95848.16;4932249;29;20026;-72
2023/04/05 10:44:11;;;;;;;5.28;4.28;;;;;;;15.11;32.39;95840.78;4931757;29;20609;-73
2023/04/05 10:46:39;;;;;;;5.07;4.57;;;;;;;14.99;33.19;95831.53;4931575;29;20075;-73
2023/04/05 10:49:33;;;;;;;5.57;4.95;;;;;;;14.89;30.78;95835.16;4933973;29;20032;-72
2023/04/05 10:51:59;;;;;;;5.22;4.80;;;;;;;15.52;29.23;95826.66;4935653;29;20032;-73
2023/04/05 10:54:27;;;;;;;5.15;4.65;;;;;;;15.64;30.30;95823.63;4937103;29;20055;-73
2023/04/05 10:56:53;;;;;;;7.43;5.18;;;;;;;16.10;30.30;95821.16;4935465;29;20044;-73
2023/04/05 10:59:20;;;;;;;5.78;5.10;;;;;;;15.78;30.66;95814.97;4913877;29;20024;-72
2023/04/05 11:01:46;;;;;;;6.25;4.97;;;;;;;16.13;31.50;95812.03;4937353;29;20054;-72
2023/04/05 11:04:15;;;;;;;7.00;4.78;;;;;;;16.49;29.73;95808.84;4936124;29;20027;-72
2023/04/05 11:06:42;;;;;;;5.15;4.65;;;;;;;15.87;29.66;95815.78;4931150;29;20488;-72
2023/04/05 11:09:17;;;;;;;5.75;5.22;;;;;;;16.67;29.50;95813.03;4932185;29;20024;-72
2023/04/05 11:11:47;;;;;;;6.45;4.97;;;;;;;17.18;31.54;95809.81;4933179;29;20079;-72
2023/04/05 11:14:34;;;;;;;6.18;4.35;;;;;;;16.82;30.69;95805.94;4935139;29;20074;-72
2023/04/05 11:17:00;;;;;;;5.47;4.97;;;;;;;17.27;30.10;95806.09;4934347;29;20019;-72
2023/04/05 11:19:44;;;;;;;5.82;4.82;;;;;;;17.29;28.19;95805.91;4929248;29;20095;-73
2023/04/05 11:22:11;;;;;;;6.43;5.00;;;;;;;17.20;29.71;95807.81;4937296;29;20023;-73
2023/04/05 11:24:56;;;;;;;5.70;5.20;;;;;;;16.90;28.63;95797.88;4934338;29;20028;-73
2023/04/05 11:27:32;;;;;;;5.88;4.93;;;;;;;16.98;30.92;95799.69;4934980;29;20066;-72
2023/04/05 11:29:59;;;;;;;5.32;4.93;;;;;;;17.38;28.41;95796.00;4933165;29;20027;-72
2023/04/05 11:32:45;;;;;;;5.88;5.20;;;;;;;16.32;30.08;95798.31;4919923;29;20636;-72